Time;durP1;ratioP1;P1;durP2;ratioP2;P2;SDS_P1;SDS_P2;PMS_P1;PMS_P2;Temp;Humidity;BMP_temperature;BMP_pressure;BME280_temperature;BME280_humidity;BME280_pressure;Samples;Min_cycle;Max_cycle;Signal;HPM_P1;HPM_P2
2023/09/01 00:01:37;;;;;;;1.53;1.20;;;12.10;1.00;;;;;;8309179;28;20186;-63
2023/09/01 00:05:38;;;;;;;1.57;1.37;;;12.10;99.90;;;;;;8321720;28;20197;-63
2023/09/01 00:09:39;;;;;;;2.53;1.37;;;11.90;99.90;;;;;;8306482;28;20248;-64
2023/09/01 00:13:40;;;;;;;2.40;1.60;;;11.80;99.90;;;;;;8311159;28;20213;-60
2023/09/01 00:17:41;;;;;;;1.83;1.33;;;11.60;99.90;;;;;;8313347;28;20199;-65
2023/09/01 00:21:41;;;;;;;1.53;1.40;;;11.40;1.00;;;;;;8308014;28;20205;-65
2023/09/01 00:25:42;;;;;;;1.27;1.17;;;11.30;1.00;;;;;;8311367;28;20203;-61
2023/09/01 00:29:43;;;;;;;1.60;1.33;;;11.20;1.00;;;;;;8320701;28;20236;-61
2023/09/01 00:33:44;;;;;;;1.53;1.10;;;11.10;1.00;;;;;;8307700;28;20216;-61
2023/09/01 00:37:44;;;;;;;2.33;1.57;;;11.00;1.00;;;;;;8304717;28;20196;-62
2023/09/01 00:41:45;;;;;;;1.50;1.33;;;10.90;1.00;;;;;;8322556;28;20254;-62
2023/09/01 00:45:46;;;;;;;1.40;1.30;;;10.80;99.90;;;;;;8306651;28;20196;-63
2023/09/01 00:49:47;;;;;;;1.30;1.20;;;10.70;99.90;;;;;;8306058;28;20211;-64
2023/09/01 00:53:48;;;;;;;1.50;1.17;;;10.70;99.90;;;;;;8305728;28;20204;-62
2023/09/01 00:57:49;;;;;;;1.90;1.20;;;10.60;99.90;;;;;;8323222;28;20191;-61
2023/09/01 01:01:50;;;;;;;1.40;1.13;;;10.60;1.00;;;;;;8308062;28;20187;-66
2023/09/01 01:06:11;;;;;;;1.47;1.37;;;10.50;99.90;;;;;;8309477;28;20196;-67
2023/09/01 01:10:32;;;;;;;2.60;1.30;;;10.50;99.90;;;;;;8319524;28;20212;-65
2023/09/01 01:14:53;;;;;;;1.50;1.17;;;10.50;99.90;;;;;;8310827;28;20220;-69
2023/09/01 01:18:55;;;;;;;1.80;1.70;;;10.40;99.90;;;;;;8318933;28;20184;-68
2023/09/01 01:23:11;;;;;;;1.30;1.20;;;10.40;99.90;;;;;;8312484;28;20188;-66
2023/09/01 01:27:18;;;;;;;2.07;1.47;;;10.40;99.90;;;;;;8318939;28;20258;-67
2023/09/01 01:31:18;;;;;;;1.67;1.43;;;10.40;99.90;;;;;;8308106;28;20284;-67
2023/09/01 01:35:45;;;;;;;2.07;1.70;;;10.40;1.20;;;;;;8320350;28;20243;-69
2023/09/01 01:39:48;;;;;;;1.90;1.70;;;10.40;99.90;;;;;;8307803;28;20318;-71
2023/09/01 01:43:53;;;;;;;2.00;1.40;;;10.50;99.90;;;;;;8302540;28;20188;-66
2023/09/01 01:47:54;;;;;;;1.23;1.13;;;10.60;1.00;;;;;;8304535;28;20212;-65
2023/09/01 01:51:55;;;;;;;2.07;1.57;;;10.60;1.00;;;;;;8318498;28;20184;-65
2023/09/01 01:55:56;;;;;;;1.77;1.33;;;10.60;1.00;;;;;;8308046;28;20254;-68
2023/09/01 01:59:57;;;;;;;1.77;1.57;;;10.60;99.90;;;;;;8311583;28;20196;-66
2023/09/01 02:03:58;;;;;;;3.03;1.63;;;10.50;1.00;;;;;;8315574;28;20193;-66
2023/09/01 02:07:59;;;;;;;2.00;1.53;;;10.50;99.90;;;;;;8316854;28;20244;-64
2023/09/01 02:12:00;;;;;;;1.83;1.57;;;10.40;99.90;;;;;;8327478;28;20209;-64
2023/09/01 02:16:01;;;;;;;2.17;1.63;;;10.40;99.90;;;;;;8310807;28;20194;-65
2023/09/01 02:20:10;;;;;;;2.70;1.50;;;10.30;1.00;;;;;;8342128;28;20217;-61
2023/09/01 02:24:11;;;;;;;2.00;1.80;;;10.20;99.90;;;;;;8309933;28;20645;-64
2023/09/01 02:28:13;;;;;;;1.40;1.30;;;10.10;99.90;;;;;;8314570;28;20207;-60
2023/09/01 02:32:16;;;;;;;1.90;1.63;;;10.00;99.90;;;;;;8324655;28;20179;-64
2023/09/01 02:36:34;;;;;;;1.53;1.43;;;9.90;1.00;;;;;;8311836;28;20182;-61
2023/09/01 02:40:34;;;;;;;1.67;1.53;;;9.90;99.90;;;;;;8322370;28;20183;-61
2023/09/01 02:44:35;;;;;;;2.47;1.53;;;9.80;99.90;;;;;;8311320;28;20197;-61
2023/09/01 02:48:36;;;;;;;2.33;1.77;;;9.80;7.40;;;;;;8308120;28;20203;-62
2023/09/01 02:52:37;;;;;;;4.67;2.40;;;9.70;99.90;;;;;;8314971;28;20187;-64
2023/09/01 02:56:38;;;;;;;6.07;2.20;;;9.80;99.90;;;;;;8325105;28;20274;-60
2023/09/01 03:00:38;;;;;;;3.03;1.97;;;9.80;99.90;;;;;;8326069;28;20217;-62
2023/09/01 03:04:39;;;;;;;2.03;1.83;;;9.80;99.90;;;;;;8324843;28;20218;-61
2023/09/01 03:08:40;;;;;;;2.67;2.00;;;9.80;99.90;;;;;;8312268;28;20294;-61
2023/09/01 03:12:40;;;;;;;3.83;2.03;;;9.80;99.90;;;;;;8308314;28;20193;-64
2023/09/01 03:16:43;;;;;;;1.80;1.70;;;9.90;99.90;;;;;;8314921;28;20180;-62
2023/09/01 03:20:44;;;;;;;3.60;1.93;;;9.90;99.90;;;;;;8309118;28;20274;-65
2023/09/01 03:24:45;;;;;;;2.53;2.00;;;9.90;99.90;;;;;;8310112;28;20313;-66
2023/09/01 03:28:46;;;;;;;2.80;2.20;;;9.80;99.90;;;;;;8325034;28;20214;-65
2023/09/01 03:32:46;;;;;;;2.17;1.70;;;9.80;99.90;;;;;;8311334;28;20204;-65
2023/09/01 03:36:47;;;;;;;4.07;1.93;;;9.80;99.90;;;;;;8309412;28;20178;-65
2023/09/01 03:40:48;;;;;;;2.43;1.90;;;9.70;99.90;;;;;;8308724;28;20214;-65
2023/09/01 03:44:52;;;;;;;2.60;1.83;;;9.70;99.90;;;;;;8311909;28;20260;-67
2023/09/01 03:48:53;;;;;;;3.80;2.13;;;9.70;99.90;;;;;;8312537;28;20317;-67
2023/09/01 03:52:54;;;;;;;3.57;2.13;;;9.80;99.90;;;;;;8306776;28;20179;-66
2023/09/01 03:56:55;;;;;;;2.57;2.10;;;9.80;99.90;;;;;;8322101;28;20272;-68
2023/09/01 04:00:55;;;;;;;2.80;2.07;;;9.80;99.90;;;;;;8323529;28;20179;-65
2023/09/01 04:04:56;;;;;;;4.17;2.00;;;9.90;99.90;;;;;;8320041;28;20182;-66
2023/09/01 04:08:57;;;;;;;3.17;2.20;;;9.90;99.90;;;;;;8319254;28;20222;-68
2023/09/01 04:12:58;;;;;;;2.90;2.13;;;9.90;99.90;;;;;;8308593;28;20179;-67
2023/09/01 04:16:58;;;;;;;4.23;2.50;;;10.00;99.90;;;;;;8322765;28;20183;-66
2023/09/01 04:21:00;;;;;;;3.60;2.40;;;10.10;99.90;;;;;;8321256;28;20598;-65
2023/09/01 04:25:00;;;;;;;2.37;2.17;;;10.20;99.90;;;;;;8326001;28;20206;-65
2023/09/01 04:29:03;;;;;;;4.20;2.50;;;10.30;99.90;;;;;;8320336;28;20274;-65
2023/09/01 04:33:05;;;;;;;4.87;2.23;;;10.40;99.90;;;;;;8308364;28;20240;-65
2023/09/01 04:37:05;;;;;;;4.40;2.47;;;10.60;99.90;;;;;;8318482;28;20245;-66
2023/09/01 04:41:06;;;;;;;2.63;2.27;;;10.90;99.90;;;;;;8313162;28;20579;-65
2023/09/01 04:45:07;;;;;;;2.73;1.87;;;11.20;99.90;;;;;;8317205;28;20193;-65
2023/09/01 04:49:08;;;;;;;4.03;2.30;;;11.50;99.90;;;;;;8320323;28;20209;-65
2023/09/01 04:53:09;;;;;;;1.93;1.77;;;11.70;99.90;;;;;;8323026;28;20594;-66
2023/09/01 04:57:10;;;;;;;2.73;1.70;;;11.70;99.90;;;;;;8307593;28;20217;-63
2023/09/01 05:01:10;;;;;;;3.87;1.90;;;11.80;99.90;;;;;;8322206;28;20197;-64
2023/09/01 05:05:12;;;;;;;2.50;2.07;;;11.80;99.90;;;;;;8304342;28;20186;-65
2023/09/01 05:09:13;;;;;;;2.40;1.87;;;11.90;99.90;;;;;;8309365;28;20220;-65
2023/09/01 05:13:14;;;;;;;2.87;1.80;;;12.00;99.90;;;;;;8318924;28;20185;-63
2023/09/01 05:17:14;;;;;;;2.43;1.70;;;12.10;99.90;;;;;;8320770;28;20190;-65
2023/09/01 05:21:15;;;;;;;2.33;1.53;;;12.20;99.90;;;;;;8320180;28;20320;-66
2023/09/01 05:25:16;;;;;;;3.00;1.77;;;12.40;99.90;;;;;;8320442;28;20206;-64
2023/09/01 05:29:17;;;;;;;3.50;1.80;;;12.50;99.90;;;;;;8301427;28;20271;-65
2023/09/01 05:33:17;;;;;;;1.83;1.50;;;12.70;99.90;;;;;;8324948;28;20190;-65
2023/09/01 05:37:18;;;;;;;3.10;1.97;;;12.80;99.90;;;;;;8323257;28;20201;-64
2023/09/01 05:41:19;;;;;;;3.70;1.70;;;13.00;99.90;;;;;;8334821;28;20212;-63
2023/09/01 05:45:20;;;;;;;3.17;1.63;;;13.20;1.00;;;;;;8310274;28;20198;-61
2023/09/01 05:49:21;;;;;;;3.37;1.90;;;13.40;1.00;;;;;;8314516;28;20209;-64
2023/09/01 05:53:22;;;;;;;2.90;1.67;;;13.50;99.90;;;;;;8329707;28;20195;-63
2023/09/01 05:57:23;;;;;;;2.00;1.40;;;13.70;99.90;;;;;;8314126;28;20195;-62
2023/09/01 06:01:24;;;;;;;3.97;1.40;;;13.90;99.90;;;;;;8327061;28;20186;-62
2023/09/01 06:05:25;;;;;;;3.70;1.77;;;14.00;99.90;;;;;;8309920;28;20707;-62
2023/09/01 06:09:25;;;;;;;3.53;1.67;;;14.10;99.90;;;;;;8320143;28;20317;-62
2023/09/01 06:13:26;;;;;;;2.37;1.47;;;14.30;99.90;;;;;;8322795;28;20198;-62
2023/09/01 06:17:27;;;;;;;6.23;1.97;;;14.40;99.90;;;;;;8310946;28;20264;-65
2023/09/01 06:21:28;;;;;;;4.60;1.70;;;14.50;99.90;;;;;;8322315;28;20201;-66
2023/09/01 06:25:28;;;;;;;4.63;2.00;;;14.70;99.90;;;;;;8307307;28;20210;-62
2023/09/01 06:29:29;;;;;;;4.10;2.07;;;14.80;99.90;;;;;;8316963;28;20241;-62
2023/09/01 06:33:30;;;;;;;5.07;1.90;;;14.90;98.80;;;;;;8328415;28;20186;-63
2023/09/01 06:37:31;;;;;;;2.67;1.87;;;15.10;91.50;;;;;;8311486;28;20194;-64
2023/09/01 06:41:33;;;;;;;4.77;2.47;;;15.20;82.50;;;;;;8313873;28;20190;-62
2023/09/01 06:45:34;;;;;;;3.10;2.13;;;15.30;44.70;;;;;;8325076;28;20268;-62
2023/09/01 06:49:34;;;;;;;4.77;1.77;;;15.40;22.10;;;;;;8329366;28;20218;-65
2023/09/01 06:53:35;;;;;;;2.80;1.93;;;15.50;35.10;;;;;;8311068;28;20186;-64
2023/09/01 06:57:36;;;;;;;3.47;2.13;;;15.70;25.60;;;;;;8309871;28;20590;-64
2023/09/01 07:01:36;;;;;;;4.00;2.17;;;15.80;23.90;;;;;;8305382;28;20221;-63
2023/09/01 07:05:37;;;;;;;3.20;2.10;;;15.90;3.60;;;;;;8323762;28;20183;-62
2023/09/01 07:09:38;;;;;;;3.27;2.13;;;16.00;1.00;;;;;;8309211;28;20221;-64
2023/09/01 07:13:39;;;;;;;3.80;2.33;;;16.20;7.90;;;;;;8309107;28;20240;-63
2023/09/01 07:17:39;;;;;;;3.33;2.03;;;16.30;1.00;;;;;;8315422;28;20181;-61
2023/09/01 07:21:40;;;;;;;6.27;2.17;;;16.40;1.00;;;;;;8307901;28;20273;-63
2023/09/01 07:25:44;;;;;;;4.40;2.00;;;16.40;1.00;;;;;;8323732;28;20224;-63
2023/09/01 07:29:48;;;;;;;3.13;2.07;;;16.50;1.00;;;;;;8323974;28;20210;-65
2023/09/01 07:33:49;;;;;;;4.40;1.87;;;16.60;1.00;;;;;;8323100;28;20189;-65
2023/09/01 07:37:50;;;;;;;3.20;1.90;;;16.80;1.00;;;;;;8321688;28;20208;-64
2023/09/01 07:41:50;;;;;;;5.20;2.20;;;16.90;1.00;;;;;;8305792;28;20236;-61
2023/09/01 07:45:51;;;;;;;4.30;2.07;;;16.90;1.00;;;;;;8322720;28;20856;-64
2023/09/01 07:49:52;;;;;;;4.07;2.10;;;17.00;1.00;;;;;;8304492;28;20214;-63
2023/09/01 07:53:54;;;;;;;3.47;1.87;;;16.90;1.00;;;;;;8308275;28;21057;-63
2023/09/01 07:57:55;;;;;;;7.17;2.57;;;17.00;1.00;;;;;;8320676;28;20189;-63
2023/09/01 08:01:55;;;;;;;3.90;2.17;;;17.10;1.00;;;;;;8309922;28;20178;-63
2023/09/01 08:05:58;;;;;;;3.50;2.20;;;17.10;1.00;;;;;;8313148;28;20298;-63
2023/09/01 08:09:59;;;;;;;4.40;2.27;;;17.20;1.00;;;;;;8322689;28;20245;-64
2023/09/01 08:14:00;;;;;;;6.10;2.50;;;17.40;1.00;;;;;;8323842;28;20174;-66
2023/09/01 08:18:01;;;;;;;3.60;2.13;;;17.60;1.00;;;;;;8304117;28;20185;-64
2023/09/01 08:22:02;;;;;;;4.67;2.33;;;17.80;1.00;;;;;;8307899;28;20229;-64
2023/09/01 08:26:07;;;;;;;4.63;2.00;;;18.00;1.00;;;;;;8322818;28;20221;-64
2023/09/01 08:30:08;;;;;;;4.27;2.17;;;18.00;1.00;;;;;;8325010;28;20213;-63
2023/09/01 08:34:10;;;;;;;3.90;2.00;;;17.90;1.00;;;;;;8320092;28;20261;-63
2023/09/01 08:38:11;;;;;;;3.37;1.80;;;18.00;1.00;;;;;;8320386;28;20182;-63
2023/09/01 08:42:12;;;;;;;4.30;2.00;;;18.10;1.00;;;;;;8309005;28;20223;-61
2023/09/01 08:46:18;;;;;;;3.53;1.80;;;18.50;1.00;;;;;;8321276;28;20189;-64
2023/09/01 08:50:21;;;;;;;4.70;2.30;;;18.60;1.00;;;;;;8320637;28;20274;-63
2023/09/01 08:54:21;;;;;;;3.93;1.93;;;18.60;1.00;;;;;;8307318;28;20229;-64
2023/09/01 08:58:23;;;;;;;3.83;1.80;;;18.70;1.00;;;;;;8322833;28;20269;-62
2023/09/01 09:02:24;;;;;;;6.20;2.10;;;19.00;1.00;;;;;;8323684;28;20193;-66
2023/09/01 09:06:32;;;;;;;6.47;2.37;;;19.10;1.00;;;;;;8311494;28;20591;-64
2023/09/01 09:10:34;;;;;;;4.57;2.10;;;19.10;1.00;;;;;;8306077;28;20313;-64
2023/09/01 09:14:49;;;;;;;4.80;1.90;;;19.20;1.00;;;;;;8305909;28;20249;-63
2023/09/01 09:18:50;;;;;;;5.47;2.07;;;19.40;1.00;;;;;;8304294;28;20190;-64
2023/09/01 09:22:59;;;;;;;4.13;1.87;;;19.40;1.00;;;;;;8303779;28;20599;-62
2023/09/01 09:26:59;;;;;;;4.50;2.10;;;19.70;1.00;;;;;;8309832;28;20277;-66
2023/09/01 09:31:00;;;;;;;4.00;2.13;;;19.80;1.00;;;;;;8306252;28;20221;-64
2023/09/01 09:35:09;;;;;;;5.33;1.80;;;20.10;1.00;;;;;;8321290;28;20286;-63
2023/09/01 09:39:23;;;;;;;4.87;2.00;;;20.30;1.00;;;;;;8313393;28;20185;-62
2023/09/01 09:43:24;;;;;;;3.83;2.40;;;20.50;1.00;;;;;;8303432;28;20202;-63
2023/09/01 09:47:25;;;;;;;3.97;2.13;;;20.60;1.00;;;;;;8320803;28;20275;-64
2023/09/01 09:51:26;;;;;;;4.50;2.03;;;20.70;1.00;;;;;;8318861;28;20339;-64
2023/09/01 09:55:28;;;;;;;5.43;2.10;;;21.00;1.00;;;;;;8297678;28;20242;-62
2023/09/01 10:00:14;;;;;;;6.57;2.00;;;21.10;1.00;;;;;;8307960;28;20281;-65
2023/09/01 10:04:15;;;;;;;2.93;1.83;;;21.20;1.00;;;;;;8302912;28;20198;-63
2023/09/01 10:08:20;;;;;;;2.63;1.50;;;21.10;1.00;;;;;;8320100;28;20206;-64
2023/09/01 10:12:21;;;;;;;5.27;2.03;;;21.20;1.00;;;;;;8301974;28;20453;-65
2023/09/01 10:16:23;;;;;;;4.33;2.03;;;21.30;1.00;;;;;;8322117;28;20177;-65
2023/09/01 10:20:23;;;;;;;3.93;1.90;;;21.30;1.00;;;;;;8327345;28;20275;-65
2023/09/01 10:24:24;;;;;;;3.53;1.80;;;21.30;1.00;;;;;;8326177;28;20438;-61
2023/09/01 10:28:25;;;;;;;4.20;1.93;;;21.10;1.00;;;;;;8324361;28;20202;-62
2023/09/01 10:32:31;;;;;;;4.33;2.23;;;21.00;1.00;;;;;;8309332;28;20183;-65
2023/09/01 10:36:32;;;;;;;7.07;1.93;;;20.90;1.00;;;;;;8324382;28;20185;-64
2023/09/01 10:40:44;;;;;;;3.77;1.97;;;20.90;1.00;;;;;;8311622;28;20186;-63
2023/09/01 10:44:48;;;;;;;2.73;1.77;;;21.00;1.00;;;;;;8307641;28;20575;-63
2023/09/01 10:48:58;;;;;;;5.90;2.20;;;21.20;1.00;;;;;;8312119;28;20252;-65
2023/09/01 10:53:28;;;;;;;5.77;2.27;;;21.40;1.00;;;;;;8307123;28;20216;-64
2023/09/01 10:57:43;;;;;;;6.70;2.17;;;21.50;1.00;;;;;;8301727;28;20183;-66
2023/09/01 11:01:44;;;;;;;5.57;2.40;;;21.60;1.00;;;;;;8324994;28;20694;-62
2023/09/01 11:05:53;;;;;;;6.03;2.07;;;21.70;1.00;;;;;;8327248;28;20213;-65
2023/09/01 11:09:56;;;;;;;4.57;1.90;;;21.90;1.00;;;;;;8308648;28;20218;-64
2023/09/01 11:14:01;;;;;;;3.70;2.10;;;21.80;1.00;;;;;;8309481;28;20183;-64
2023/09/01 11:18:14;;;;;;;5.10;2.20;;;21.80;1.00;;;;;;8322635;28;20178;-64
2023/09/01 11:22:15;;;;;;;4.50;1.93;;;21.80;1.00;;;;;;8309332;28;20187;-65
2023/09/01 11:26:16;;;;;;;6.90;2.17;;;22.00;1.00;;;;;;8326514;28;20302;-64
2023/09/01 11:30:19;;;;;;;5.00;1.97;;;22.20;1.00;;;;;;8322934;28;20220;-66
2023/09/01 11:34:20;;;;;;;4.00;2.20;;;22.50;1.00;;;;;;8308678;28;20281;-64
2023/09/01 11:38:21;;;;;;;4.93;2.03;;;22.80;1.00;;;;;;8305037;28;20277;-65
2023/09/01 11:42:22;;;;;;;5.33;1.90;;;22.80;1.00;;;;;;8307760;28;20387;-66
2023/09/01 11:46:33;;;;;;;4.07;1.73;;;22.80;1.00;;;;;;8306341;28;20217;-65
2023/09/01 11:50:34;;;;;;;4.60;2.33;;;22.90;1.00;;;;;;8323386;28;20214;-67
2023/09/01 11:54:41;;;;;;;3.57;1.90;;;23.00;1.00;;;;;;8307186;28;20202;-63
2023/09/01 11:58:42;;;;;;;4.60;2.10;;;23.30;1.00;;;;;;8324982;28;20194;-65
2023/09/01 12:02:43;;;;;;;6.33;2.10;;;23.40;1.00;;;;;;8322736;28;20191;-65
2023/09/01 12:06:47;;;;;;;4.47;1.87;;;23.60;1.00;;;;;;8313225;28;20187;-65
2023/09/01 12:10:48;;;;;;;4.23;2.20;;;23.90;1.00;;;;;;8318909;28;20214;-63
2023/09/01 12:14:49;;;;;;;3.80;2.00;;;24.30;1.00;;;;;;8305584;28;20519;-65
2023/09/01 12:18:51;;;;;;;3.70;1.90;;;24.50;1.00;;;;;;8324836;28;20183;-67
2023/09/01 12:22:55;;;;;;;4.83;2.30;;;24.40;1.00;;;;;;8322916;28;20589;-65
2023/09/01 12:26:57;;;;;;;4.27;2.47;;;24.20;1.00;;;;;;8301729;28;20201;-62
2023/09/01 12:31:00;;;;;;;4.67;2.20;;;23.70;1.00;;;;;;8323328;28;20276;-64
2023/09/01 12:35:00;;;;;;;5.40;2.10;;;23.60;1.00;;;;;;8320144;28;20276;-65
2023/09/01 12:39:01;;;;;;;5.60;2.00;;;23.80;1.00;;;;;;8321229;28;20181;-65
2023/09/01 12:43:02;;;;;;;2.90;2.00;;;23.70;1.00;;;;;;8323167;28;20194;-65
2023/09/01 12:47:03;;;;;;;3.30;1.90;;;24.30;1.00;;;;;;8320515;28;20189;-63
2023/09/01 12:51:04;;;;;;;5.10;1.90;;;24.70;1.00;;;;;;8334216;28;20221;-66
2023/09/01 12:55:05;;;;;;;2.43;1.70;;;24.50;1.00;;;;;;8318657;28;20490;-64
2023/09/01 12:59:06;;;;;;;4.97;2.20;;;24.30;1.00;;;;;;8303875;28;20190;-64
2023/09/01 13:03:07;;;;;;;3.05;1.60;;;24.10;1.00;;;;;;8312721;28;20186;-65
2023/09/01 13:07:10;;;;;;;4.20;2.00;;;24.10;1.00;;;;;;8320733;28;20195;-64
2023/09/01 13:11:14;;;;;;;3.43;1.73;;;23.90;1.00;;;;;;8316793;28;20214;-63
2023/09/01 13:15:15;;;;;;;3.73;2.23;;;23.50;1.00;;;;;;8307239;28;20182;-65
2023/09/01 13:19:16;;;;;;;3.00;1.70;;;23.30;1.00;;;;;;8320395;28;20189;-64
2023/09/01 13:23:16;;;;;;;3.40;1.73;;;23.60;1.00;;;;;;8320938;28;20233;-64
2023/09/01 13:27:17;;;;;;;3.57;1.80;;;23.80;1.00;;;;;;8303159;28;20193;-67
2023/09/01 13:31:18;;;;;;;2.60;1.83;;;24.20;1.00;;;;;;8319738;28;20228;-65
2023/09/01 13:35:18;;;;;;;2.87;1.50;;;24.50;1.00;;;;;;8319745;28;20189;-64
2023/09/01 13:39:19;;;;;;;3.72;1.50;;;24.80;1.00;;;;;;8317117;28;20194;-64
2023/09/01 13:43:20;;;;;;;3.40;1.38;;;24.80;1.00;;;;;;8318932;28;20245;-63
2023/09/01 13:47:21;;;;;;;2.25;1.60;;;24.70;1.00;;;;;;8318916;28;20190;-64
2023/09/01 13:51:27;;;;;;;2.47;1.70;;;24.80;1.00;;;;;;8308435;28;20210;-64
2023/09/01 13:55:27;;;;;;;2.92;1.50;;;24.60;1.00;;;;;;8309243;28;20186;-63
2023/09/01 13:59:28;;;;;;;2.80;1.37;;;24.50;1.00;;;;;;8311626;28;20277;-65
2023/09/01 14:03:30;;;;;;;2.43;1.50;;;24.50;1.00;;;;;;8325583;28;20195;-64
2023/09/01 14:07:31;;;;;;;3.07;1.53;;;24.30;1.00;;;;;;8316087;28;20257;-64
2023/09/01 14:11:32;;;;;;;2.93;1.40;;;24.20;1.00;;;;;;8324342;28;20225;-64
2023/09/01 14:15:33;;;;;;;2.43;1.57;;;23.70;1.00;;;;;;8325492;28;20209;-65
2023/09/01 14:19:34;;;;;;;2.23;1.30;;;23.40;1.00;;;;;;8324420;28;20189;-65
2023/09/01 14:23:35;;;;;;;3.17;1.47;;;23.10;1.00;;;;;;8329279;28;20197;-66
2023/09/01 14:27:36;;;;;;;3.60;1.70;;;23.00;1.00;;;;;;8313071;28;20190;-63
2023/09/01 14:31:37;;;;;;;3.10;1.40;;;23.00;1.00;;;;;;8322887;28;20288;-63
2023/09/01 14:35:38;;;;;;;3.23;1.47;;;23.00;1.00;;;;;;8324407;28;20281;-65
2023/09/01 14:39:39;;;;;;;2.87;1.37;;;23.30;1.00;;;;;;8309365;28;20190;-64
2023/09/01 14:43:39;;;;;;;3.80;1.43;;;23.70;1.00;;;;;;8307559;28;20559;-64
2023/09/01 14:47:40;;;;;;;2.43;1.20;;;23.90;1.00;;;;;;8307676;28;20194;-64
2023/09/01 14:51:41;;;;;;;2.67;1.40;;;23.90;1.00;;;;;;8311012;28;20217;-65
2023/09/01 14:55:41;;;;;;;1.63;1.10;;;23.70;1.00;;;;;;8324401;28;20221;-66
2023/09/01 14:59:42;;;;;;;1.70;1.50;;;23.50;1.00;;;;;;8315066;28;20192;-65
2023/09/01 15:03:43;;;;;;;2.13;1.30;;;23.30;1.00;;;;;;8323256;28;20194;-64
2023/09/01 15:07:44;;;;;;;2.07;1.10;;;23.20;1.00;;;;;;8314663;28;20228;-64
2023/09/01 15:11:45;;;;;;;1.50;1.03;;;23.10;1.00;;;;;;8308167;28;20222;-64
2023/09/01 15:15:48;;;;;;;2.87;1.23;;;23.20;1.00;;;;;;8326933;28;20189;-62
2023/09/01 15:19:49;;;;;;;1.83;1.20;;;23.10;1.00;;;;;;8323775;28;20635;-62
2023/09/01 15:23:50;;;;;;;3.03;1.43;;;23.00;1.00;;;;;;8307315;28;20209;-62
2023/09/01 15:27:50;;;;;;;3.00;1.40;;;22.80;1.00;;;;;;8305944;28;20190;-64
2023/09/01 15:31:51;;;;;;;2.67;1.40;;;22.50;1.00;;;;;;8321995;28;20212;-64
2023/09/01 15:35:57;;;;;;;2.90;1.17;;;22.40;1.00;;;;;;8323043;28;20417;-63
2023/09/01 15:39:57;;;;;;;1.40;1.23;;;22.20;1.00;;;;;;8322866;28;20190;-63
2023/09/01 15:43:58;;;;;;;2.77;1.17;;;22.20;1.00;;;;;;8308598;28;20198;-63
2023/09/01 15:47:59;;;;;;;2.33;1.30;;;22.10;1.00;;;;;;8325906;28;20185;-64
2023/09/01 15:52:00;;;;;;;3.00;1.53;;;22.00;1.00;;;;;;8318924;28;20221;-63
2023/09/01 15:56:02;;;;;;;3.23;1.40;;;21.80;1.00;;;;;;8305848;28;20213;-65
2023/09/01 16:00:04;;;;;;;1.40;1.20;;;21.80;1.00;;;;;;8320411;28;20186;-63
2023/09/01 16:04:05;;;;;;;2.90;1.57;;;21.70;1.00;;;;;;8312272;28;20240;-65
2023/09/01 16:08:06;;;;;;;2.60;1.30;;;21.60;1.00;;;;;;8303082;28;20192;-63
2023/09/01 16:12:07;;;;;;;1.77;1.33;;;21.50;1.00;;;;;;8303722;28;20206;-64
2023/09/01 16:16:08;;;;;;;1.90;1.27;;;21.50;1.00;;;;;;8322381;28;20182;-63
2023/09/01 16:20:09;;;;;;;1.73;1.10;;;21.40;1.00;;;;;;8305754;28;20295;-64
2023/09/01 16:24:10;;;;;;;1.90;1.40;;;21.30;1.00;;;;;;8311366;28;20205;-65
2023/09/01 16:28:11;;;;;;;2.03;1.20;;;21.20;1.00;;;;;;8319533;28;20582;-64
2023/09/01 16:32:12;;;;;;;1.70;1.40;;;21.10;1.00;;;;;;8302900;28;20313;-63
2023/09/01 16:36:13;;;;;;;2.57;1.73;;;20.90;1.00;;;;;;8324428;28;20178;-65
2023/09/01 16:40:15;;;;;;;2.37;1.70;;;20.70;1.00;;;;;;8319482;28;20186;-63
2023/09/01 16:44:16;;;;;;;3.70;1.90;;;20.50;1.00;;;;;;8323064;28;20186;-64
2023/09/01 16:48:17;;;;;;;2.40;1.47;;;20.40;1.00;;;;;;8308657;28;20194;-63
2023/09/01 16:52:19;;;;;;;2.53;1.40;;;20.20;1.00;;;;;;8322355;28;20887;-63
2023/09/01 16:56:19;;;;;;;3.97;1.70;;;20.10;1.00;;;;;;8312502;28;20190;-65
2023/09/01 17:00:20;;;;;;;3.20;1.50;;;19.90;1.00;;;;;;8304790;28;20197;-63
2023/09/01 17:04:21;;;;;;;2.23;1.40;;;19.80;1.00;;;;;;8320753;28;20256;-63
2023/09/01 17:08:22;;;;;;;74.63;43.13;;;19.60;1.00;;;;;;8302960;28;20215;-62
2023/09/01 17:12:23;;;;;;;258.13;147.73;;;19.50;1.00;;;;;;8323537;28;20281;-63
2023/09/01 17:16:23;;;;;;;103.73;62.60;;;19.40;1.00;;;;;;8306719;28;20185;-63
2023/09/01 17:20:27;;;;;;;55.90;33.80;;;19.20;1.00;;;;;;8318980;28;20197;-64
2023/09/01 17:24:28;;;;;;;16.57;11.80;;;19.10;1.00;;;;;;8320135;28;20204;-64
2023/09/01 17:28:29;;;;;;;7.17;4.43;;;18.90;1.00;;;;;;8316993;28;20217;-65
2023/09/01 17:32:30;;;;;;;3.70;2.50;;;18.70;5.70;;;;;;8317267;28;20216;-65
2023/09/01 17:36:31;;;;;;;3.83;2.20;;;18.50;28.20;;;;;;8323626;28;20197;-64
2023/09/01 17:40:36;;;;;;;1.93;1.57;;;18.40;65.40;;;;;;8326375;28;20192;-64
2023/09/01 17:44:37;;;;;;;2.93;1.80;;;18.20;99.90;;;;;;8313649;28;20214;-65
2023/09/01 17:48:37;;;;;;;1.70;1.50;;;18.10;99.90;;;;;;8319223;28;20236;-64
2023/09/01 17:52:39;;;;;;;2.00;1.80;;;17.90;99.90;;;;;;8311810;28;20240;-65
2023/09/01 17:56:40;;;;;;;2.07;1.80;;;17.80;99.90;;;;;;8310019;28;20178;-64
2023/09/01 18:00:41;;;;;;;2.70;2.47;;;17.80;99.90;;;;;;8308154;28;20186;-62
2023/09/01 18:04:42;;;;;;;3.13;2.80;;;17.60;99.90;;;;;;8309200;28;20580;-63
2023/09/01 18:08:44;;;;;;;3.40;2.30;;;17.60;99.90;;;;;;8307667;28;20206;-62
2023/09/01 18:12:44;;;;;;;2.57;2.07;;;17.50;99.90;;;;;;8315493;28;20242;-63
2023/09/01 18:16:45;;;;;;;2.30;2.00;;;17.50;99.90;;;;;;8317753;28;20270;-62
2023/09/01 18:20:47;;;;;;;2.70;1.80;;;17.50;99.90;;;;;;8323374;28;20174;-62
2023/09/01 18:24:49;;;;;;;2.17;1.90;;;17.40;99.90;;;;;;8309803;28;20204;-63
2023/09/01 18:28:50;;;;;;;2.10;1.90;;;17.40;99.90;;;;;;8324257;28;20212;-62
2023/09/01 18:32:52;;;;;;;4.50;2.60;;;17.40;99.90;;;;;;8308996;28;20182;-62
2023/09/01 18:36:55;;;;;;;5.53;3.50;;;17.40;99.90;;;;;;8310668;28;20189;-62
2023/09/01 18:40:58;;;;;;;2.97;2.67;;;17.40;99.90;;;;;;8308143;28;20663;-58
2023/09/01 18:45:00;;;;;;;5.10;3.00;;;17.50;99.90;;;;;;8310788;28;20182;-61
2023/09/01 18:49:12;;;;;;;4.60;2.57;;;17.50;99.90;;;;;;8327271;28;20209;-62
2023/09/01 18:53:13;;;;;;;5.37;3.20;;;17.50;99.90;;;;;;8324247;28;20189;-59
2023/09/01 18:57:14;;;;;;;3.33;2.90;;;17.50;99.90;;;;;;8308547;28;20182;-60
2023/09/01 19:01:17;;;;;;;4.93;2.83;;;17.50;99.90;;;;;;8326733;28;20209;-60
2023/09/01 19:05:29;;;;;;;2.80;2.30;;;17.40;1.00;;;;;;8309921;28;20194;-61
2023/09/01 19:09:29;;;;;;;2.53;2.10;;;17.40;1.00;;;;;;8314227;28;20218;-61
2023/09/01 19:13:31;;;;;;;2.90;2.27;;;17.30;1.00;;;;;;8309113;28;20239;-60
2023/09/01 19:17:38;;;;;;;3.17;2.13;;;17.20;1.00;;;;;;8326155;28;20178;-60
2023/09/01 19:21:42;;;;;;;4.67;2.63;;;17.20;48.20;;;;;;8309197;28;20196;-61
2023/09/01 19:25:43;;;;;;;15.17;6.70;;;17.10;99.90;;;;;;8322546;28;20194;-60
2023/09/01 19:29:47;;;;;;;31.63;11.67;;;17.00;99.90;;;;;;8326327;28;20298;-61
2023/09/01 19:33:57;;;;;;;24.27;8.60;;;17.00;99.90;;;;;;8306710;28;20217;-60
2023/09/01 19:37:58;;;;;;;18.03;8.33;;;17.00;99.90;;;;;;8312312;28;20185;-62
2023/09/01 19:42:01;;;;;;;10.77;5.40;;;17.00;99.90;;;;;;8306805;28;20285;-61
2023/09/01 19:46:02;;;;;;;6.97;3.37;;;16.90;99.90;;;;;;8322025;28;20175;-63
2023/09/01 19:50:03;;;;;;;5.77;3.57;;;16.90;99.90;;;;;;8311185;28;20244;-61
2023/09/01 19:54:04;;;;;;;7.07;3.80;;;16.90;99.90;;;;;;8320231;28;20216;-62
2023/09/01 19:58:05;;;;;;;3.73;2.73;;;16.80;99.90;;;;;;8324622;28;20205;-62
2023/09/01 20:02:08;;;;;;;3.73;2.90;;;16.80;99.90;;;;;;8306449;28;20185;-63
2023/09/01 20:06:10;;;;;;;4.03;2.90;;;16.70;99.90;;;;;;8271786;28;20231;-63
2023/09/01 20:10:18;;;;;;;2.70;2.50;;;16.70;99.90;;;;;;8256487;28;20211;-63
2023/09/01 20:14:19;;;;;;;3.00;2.43;;;16.60;1.00;;;;;;8256095;28;20254;-62
2023/09/01 20:18:20;;;;;;;4.33;3.10;;;16.50;1.00;;;;;;8255925;28;20187;-62
2023/09/01 20:22:21;;;;;;;3.73;3.30;;;16.50;99.90;;;;;;8241595;28;20243;-61
2023/09/01 20:26:24;;;;;;;6.57;3.30;;;16.40;99.90;;;;;;8259600;28;20271;-64
2023/09/01 20:30:25;;;;;;;3.70;3.30;;;16.40;99.90;;;;;;8245863;28;20276;-61
2023/09/01 20:34:26;;;;;;;4.43;3.87;;;16.40;1.00;;;;;;8253652;28;20191;-64
2023/09/01 20:38:27;;;;;;;3.67;3.00;;;16.30;99.90;;;;;;8251818;28;20183;-64
2023/09/01 20:42:28;;;;;;;3.90;3.40;;;16.30;1.00;;;;;;8257728;28;20261;-64
2023/09/01 20:46:29;;;;;;;4.67;3.30;;;16.30;99.90;;;;;;8246526;28;20194;-64
2023/09/01 20:50:30;;;;;;;3.63;3.30;;;16.20;1.00;;;;;;8237479;28;20218;-63
2023/09/01 20:54:34;;;;;;;3.00;2.70;;;16.10;99.90;;;;;;8242655;28;20187;-64
2023/09/01 20:58:34;;;;;;;3.43;3.10;;;16.10;99.90;;;;;;8241897;28;20188;-64
2023/09/01 21:02:36;;;;;;;5.43;3.57;;;16.10;92.80;;;;;;8261589;28;20191;-69
2023/09/01 21:06:37;;;;;;;4.17;2.83;;;16.00;99.90;;;;;;8240036;28;20278;-69
2023/09/01 21:10:38;;;;;;;3.37;2.80;;;16.00;99.90;;;;;;8246547;28;20215;-68